WMT350 LROP-LGAV
Flight info
| Callsign | WMT350 |
|---|---|
| Flight time | 1h 16m |
| Altitude | 37000 |
| Route | POLUN1M/26R POLUN DCT TIMUR N181 NIKTI DCT KOROS/N0426F380 UG33 NEVRA NEVRA1Q |
| Aircraft | A20N/M-SDE2E3FGHIRWXY/LB1 |
Departure
| Time | 2026-05-05 18:30 |
|---|---|
| Airport | Bucharest Henri Coandă International Airport (LROP) |
Arrival
| Time | 2026-05-05 19:46 |
|---|---|
| Airport | Athens Eleftherios Venizelos International Airport (LGAV) |
| Time | Latitude | Longitude | Altitude | Speed | Heading |
|---|---|---|---|---|---|
| 2026-05-05 18:02 | 44.57116 | 26.08062 | 322 ft | 0 kts | 173° |
| 2026-05-05 18:16 | 44.57129 | 26.08059 | 319 ft | 2 kts | 173° |
| 2026-05-05 18:17 | 44.57146 | 26.08057 | 320 ft | 2 kts | 173° |
| 2026-05-05 18:17 | 44.57162 | 26.08054 | 319 ft | 2 kts | 171° |
| 2026-05-05 18:17 | 44.57178 | 26.08049 | 320 ft | 2 kts | 147° |
| 2026-05-05 18:17 | 44.57189 | 26.08032 | 321 ft | 2 kts | 101° |
| 2026-05-05 18:18 | 44.57189 | 26.08039 | 321 ft | 1 kts | 90° |
| 2026-05-05 18:18 | 44.57189 | 26.08041 | 321 ft | 0 kts | 88° |
| 2026-05-05 18:21 | 44.57191 | 26.08061 | 320 ft | 4 kts | 81° |
| 2026-05-05 18:21 | 44.57197 | 26.08127 | 321 ft | 10 kts | 84° |
| 2026-05-05 18:21 | 44.57206 | 26.08241 | 322 ft | 14 kts | 81° |
| 2026-05-05 18:21 | 44.57226 | 26.08385 | 319 ft | 17 kts | 84° |
| 2026-05-05 18:22 | 44.57267 | 26.08494 | 322 ft | 12 kts | 358° |
| 2026-05-05 18:22 | 44.57365 | 26.08483 | 320 ft | 16 kts | 355° |
| 2026-05-05 18:22 | 44.57463 | 26.08483 | 321 ft | 14 kts | 21° |
| 2026-05-05 18:22 | 44.57503 | 26.08611 | 321 ft | 17 kts | 84° |
| 2026-05-05 18:23 | 44.57517 | 26.08790 | 322 ft | 20 kts | 84° |
| 2026-05-05 18:23 | 44.57531 | 26.08978 | 321 ft | 20 kts | 84° |
| 2026-05-05 18:23 | 44.57542 | 26.09115 | 321 ft | 22 kts | 84° |
| 2026-05-05 18:23 | 44.57556 | 26.09306 | 320 ft | 19 kts | 84° |
| 2026-05-05 18:24 | 44.57574 | 26.09560 | 320 ft | 17 kts | 84° |
| 2026-05-05 18:24 | 44.57587 | 26.09741 | 319 ft | 20 kts | 85° |
| 2026-05-05 18:24 | 44.57603 | 26.09951 | 319 ft | 22 kts | 84° |
| 2026-05-05 18:24 | 44.57618 | 26.10149 | 319 ft | 22 kts | 84° |
| 2026-05-05 18:25 | 44.57629 | 26.10299 | 318 ft | 24 kts | 84° |
| 2026-05-05 18:25 | 44.57640 | 26.10458 | 318 ft | 26 kts | 84° |
| 2026-05-05 18:25 | 44.57657 | 26.10669 | 317 ft | 14 kts | 83° |
| 2026-05-05 18:25 | 44.57669 | 26.10825 | 317 ft | 18 kts | 84° |
| 2026-05-05 18:26 | 44.57682 | 26.11016 | 316 ft | 21 kts | 84° |
| 2026-05-05 18:26 | 44.57699 | 26.11237 | 315 ft | 24 kts | 84° |
| 2026-05-05 18:26 | 44.57716 | 26.11447 | 316 ft | 20 kts | 84° |
| 2026-05-05 18:26 | 44.57731 | 26.11655 | 315 ft | 22 kts | 84° |
| 2026-05-05 18:27 | 44.57749 | 26.11881 | 315 ft | 20 kts | 84° |
| 2026-05-05 18:27 | 44.57765 | 26.12089 | 315 ft | 23 kts | 83° |
| 2026-05-05 18:27 | 44.57782 | 26.12289 | 314 ft | 19 kts | 83° |
| 2026-05-05 18:27 | 44.57797 | 26.12490 | 313 ft | 22 kts | 84° |
| 2026-05-05 18:28 | 44.57858 | 26.12858 | 312 ft | 15 kts | 8° |
| 2026-05-05 18:28 | 44.57955 | 26.12780 | 311 ft | 18 kts | 323° |
| 2026-05-05 18:28 | 44.57983 | 26.12688 | 312 ft | 0 kts | 263° |
| 2026-05-05 18:29 | 44.57983 | 26.12682 | 312 ft | 3 kts | 263° |
| 2026-05-05 18:29 | 44.57967 | 26.12477 | 314 ft | 53 kts | 264° |
| 2026-05-05 18:30 | 44.57903 | 26.11625 | 316 ft | 119 kts | 264° |
| 2026-05-05 18:30 | 44.57792 | 26.10243 | 331 ft | 164 kts | 262° |
| 2026-05-05 18:30 | 44.57658 | 26.08574 | 744 ft | 174 kts | 262° |
| 2026-05-05 18:30 | 44.57524 | 26.06891 | 1451 ft | 174 kts | 262° |
| 2026-05-05 18:31 | 44.57408 | 26.05244 | 2295 ft | 167 kts | 263° |
| 2026-05-05 18:31 | 44.57300 | 26.03556 | 2709 ft | 183 kts | 264° |
| 2026-05-05 18:31 | 44.57171 | 26.01679 | 3077 ft | 203 kts | 264° |
| 2026-05-05 18:31 | 44.57017 | 25.99605 | 3522 ft | 224 kts | 264° |
| 2026-05-05 18:32 | 44.56630 | 25.97393 | 4130 ft | 242 kts | 243° |
| 2026-05-05 18:32 | 44.55729 | 25.95406 | 5050 ft | 248 kts | 235° |
| 2026-05-05 18:32 | 44.54672 | 25.93460 | 5943 ft | 255 kts | 234° |
| 2026-05-05 18:32 | 44.53549 | 25.91396 | 6538 ft | 277 kts | 235° |
| 2026-05-05 18:33 | 44.52398 | 25.89188 | 7423 ft | 284 kts | 236° |
| 2026-05-05 18:33 | 44.51246 | 25.86907 | 8399 ft | 290 kts | 237° |
| 2026-05-05 18:33 | 44.50084 | 25.84563 | 9376 ft | 296 kts | 238° |
| 2026-05-05 18:33 | 44.48902 | 25.82160 | 10285 ft | 304 kts | 238° |
| 2026-05-05 18:34 | 44.47658 | 25.79620 | 10744 ft | 328 kts | 238° |
| 2026-05-05 18:34 | 44.46341 | 25.76936 | 11107 ft | 351 kts | 237° |
| 2026-05-05 18:34 | 44.44935 | 25.74080 | 11850 ft | 359 kts | 237° |
| 2026-05-05 18:34 | 44.43504 | 25.71183 | 12690 ft | 365 kts | 237° |
| 2026-05-05 18:35 | 44.42047 | 25.68235 | 13553 ft | 371 kts | 237° |
| 2026-05-05 18:35 | 44.40569 | 25.65246 | 14362 ft | 375 kts | 237° |
| 2026-05-05 18:35 | 44.39078 | 25.62234 | 15227 ft | 377 kts | 237° |
| 2026-05-05 18:35 | 44.37575 | 25.59203 | 16070 ft | 380 kts | 236° |
| 2026-05-05 18:36 | 44.36065 | 25.56157 | 16882 ft | 383 kts | 236° |
| 2026-05-05 18:36 | 44.34537 | 25.53080 | 17686 ft | 387 kts | 236° |
| 2026-05-05 18:36 | 44.33018 | 25.50024 | 18455 ft | 390 kts | 236° |
| 2026-05-05 18:36 | 44.31463 | 25.46901 | 19132 ft | 393 kts | 236° |
| 2026-05-05 18:37 | 44.29895 | 25.43755 | 19809 ft | 397 kts | 237° |
| 2026-05-05 18:37 | 44.28308 | 25.40574 | 20472 ft | 401 kts | 237° |
| 2026-05-05 18:37 | 44.26707 | 25.37369 | 21132 ft | 404 kts | 237° |
| 2026-05-05 18:37 | 44.25090 | 25.34137 | 21790 ft | 408 kts | 237° |
| 2026-05-05 18:38 | 44.23459 | 25.30880 | 22437 ft | 412 kts | 237° |
| 2026-05-05 18:38 | 44.21809 | 25.27587 | 23070 ft | 416 kts | 237° |
| 2026-05-05 18:38 | 44.20148 | 25.24277 | 23664 ft | 420 kts | 237° |
| 2026-05-05 18:38 | 44.18488 | 25.20972 | 24187 ft | 423 kts | 237° |
| 2026-05-05 18:39 | 44.16791 | 25.17598 | 24701 ft | 427 kts | 237° |
| 2026-05-05 18:39 | 44.15082 | 25.14205 | 25206 ft | 430 kts | 237° |
| 2026-05-05 18:39 | 44.13355 | 25.10779 | 25698 ft | 434 kts | 238° |
| 2026-05-05 18:39 | 44.11616 | 25.07333 | 26188 ft | 437 kts | 238° |
| 2026-05-05 18:40 | 44.09861 | 25.03859 | 26674 ft | 440 kts | 238° |
| 2026-05-05 18:40 | 44.08092 | 25.00364 | 27135 ft | 443 kts | 238° |
| 2026-05-05 18:40 | 44.06311 | 24.96846 | 27604 ft | 446 kts | 238° |
| 2026-05-05 18:40 | 44.04513 | 24.93303 | 28050 ft | 449 kts | 238° |
| 2026-05-05 18:41 | 44.02730 | 24.89793 | 28480 ft | 452 kts | 238° |
| 2026-05-05 18:41 | 44.00913 | 24.86219 | 28907 ft | 455 kts | 238° |
| 2026-05-05 18:41 | 43.99081 | 24.82620 | 29321 ft | 457 kts | 238° |
| 2026-05-05 18:41 | 43.97240 | 24.79009 | 29740 ft | 460 kts | 238° |
| 2026-05-05 18:42 | 43.95389 | 24.75380 | 30112 ft | 463 kts | 238° |
| 2026-05-05 18:42 | 43.93522 | 24.71726 | 30480 ft | 464 kts | 238° |
| 2026-05-05 18:42 | 43.91650 | 24.68068 | 30852 ft | 466 kts | 238° |
| 2026-05-05 18:42 | 43.89768 | 24.64394 | 31237 ft | 467 kts | 238° |
| 2026-05-05 18:43 | 43.87888 | 24.60729 | 31708 ft | 466 kts | 238° |
| 2026-05-05 18:43 | 43.86035 | 24.57124 | 32191 ft | 464 kts | 238° |
| 2026-05-05 18:43 | 43.84166 | 24.53489 | 32684 ft | 463 kts | 238° |
| 2026-05-05 18:43 | 43.82299 | 24.49863 | 33165 ft | 461 kts | 238° |
| 2026-05-05 18:44 | 43.80439 | 24.46254 | 33630 ft | 460 kts | 238° |
| 2026-05-05 18:44 | 43.78583 | 24.42656 | 34070 ft | 458 kts | 238° |
| 2026-05-05 18:44 | 43.76736 | 24.39081 | 34440 ft | 457 kts | 238° |
| 2026-05-05 18:44 | 43.74888 | 24.35509 | 34780 ft | 456 kts | 238° |
| 2026-05-05 18:45 | 43.73014 | 24.31971 | 35114 ft | 457 kts | 234° |
| 2026-05-05 18:45 | 43.70766 | 24.28843 | 35437 ft | 462 kts | 222° |
| 2026-05-05 18:45 | 43.68096 | 24.26345 | 35747 ft | 466 kts | 211° |
| 2026-05-05 18:45 | 43.65140 | 24.24626 | 36052 ft | 470 kts | 199° |
| 2026-05-05 18:46 | 43.61931 | 24.23738 | 36345 ft | 472 kts | 186° |
| 2026-05-05 18:46 | 43.58646 | 24.23585 | 36640 ft | 472 kts | 182° |
| 2026-05-05 18:46 | 43.55364 | 24.23494 | 36929 ft | 472 kts | 182° |
| 2026-05-05 18:46 | 43.52084 | 24.23395 | 36995 ft | 471 kts | 182° |
| 2026-05-05 18:47 | 43.45543 | 24.23190 | 36998 ft | 470 kts | 182° |
| 2026-05-05 18:47 | 43.39003 | 24.22984 | 37001 ft | 470 kts | 182° |
| 2026-05-05 18:48 | 43.32500 | 24.22780 | 37005 ft | 470 kts | 183° |
| 2026-05-05 18:48 | 43.25959 | 24.22576 | 37009 ft | 471 kts | 183° |
| 2026-05-05 18:49 | 43.19403 | 24.22371 | 37013 ft | 471 kts | 183° |
| 2026-05-05 18:49 | 43.12843 | 24.22167 | 37020 ft | 472 kts | 183° |
| 2026-05-05 18:50 | 43.06324 | 24.21920 | 37030 ft | 472 kts | 184° |
| 2026-05-05 18:50 | 42.99767 | 24.21461 | 37036 ft | 472 kts | 185° |
| 2026-05-05 18:51 | 42.93204 | 24.21003 | 37047 ft | 472 kts | 185° |
| 2026-05-05 18:51 | 42.86633 | 24.20569 | 37049 ft | 473 kts | 185° |
| 2026-05-05 18:52 | 42.80062 | 24.20143 | 37052 ft | 473 kts | 185° |
| 2026-05-05 18:52 | 42.73538 | 24.19720 | 37047 ft | 472 kts | 185° |
| 2026-05-05 18:53 | 42.66994 | 24.19297 | 37041 ft | 471 kts | 185° |
| 2026-05-05 18:53 | 42.60435 | 24.18874 | 37036 ft | 471 kts | 185° |
| 2026-05-05 18:54 | 42.53907 | 24.18453 | 37034 ft | 472 kts | 185° |
| 2026-05-05 18:54 | 42.47340 | 24.18031 | 37031 ft | 472 kts | 185° |
| 2026-05-05 18:55 | 42.40769 | 24.17610 | 37030 ft | 473 kts | 185° |
| 2026-05-05 18:55 | 42.34185 | 24.17189 | 37034 ft | 474 kts | 185° |
| 2026-05-05 18:56 | 42.27631 | 24.16770 | 37037 ft | 475 kts | 185° |
| 2026-05-05 18:56 | 42.22190 | 24.16424 | 37037 ft | 475 kts | 185° |
| 2026-05-05 18:57 | 42.15892 | 24.16023 | 37040 ft | 475 kts | 185° |
| 2026-05-05 18:57 | 42.09285 | 24.15605 | 37038 ft | 474 kts | 185° |
| 2026-05-05 18:58 | 42.02715 | 24.15189 | 37041 ft | 473 kts | 185° |
| 2026-05-05 18:58 | 41.96185 | 24.14776 | 37043 ft | 473 kts | 185° |
| 2026-05-05 18:59 | 41.89603 | 24.14361 | 37051 ft | 473 kts | 185° |
| 2026-05-05 18:59 | 41.83028 | 24.13946 | 37056 ft | 473 kts | 185° |
| 2026-05-05 19:00 | 41.76447 | 24.13533 | 37060 ft | 474 kts | 185° |
| 2026-05-05 19:00 | 41.69897 | 24.13123 | 37072 ft | 475 kts | 185° |
| 2026-05-05 19:01 | 41.63292 | 24.12710 | 37053 ft | 474 kts | 185° |
| 2026-05-05 19:01 | 41.56702 | 24.12456 | 37058 ft | 476 kts | 180° |
| 2026-05-05 19:02 | 41.50124 | 24.13636 | 37063 ft | 480 kts | 168° |
| 2026-05-05 19:02 | 41.43690 | 24.15833 | 37043 ft | 480 kts | 167° |
| 2026-05-05 19:03 | 41.37208 | 24.18024 | 37038 ft | 481 kts | 167° |
| 2026-05-05 19:03 | 41.30722 | 24.20197 | 37056 ft | 481 kts | 167° |
| 2026-05-05 19:04 | 41.24228 | 24.22367 | 37043 ft | 481 kts | 167° |
| 2026-05-05 19:04 | 41.17736 | 24.24532 | 37034 ft | 481 kts | 167° |
| 2026-05-05 19:05 | 41.11276 | 24.26682 | 37035 ft | 482 kts | 167° |
| 2026-05-05 19:05 | 41.04776 | 24.28841 | 37036 ft | 483 kts | 167° |
| 2026-05-05 19:06 | 40.98255 | 24.31001 | 37037 ft | 483 kts | 167° |
| 2026-05-05 19:06 | 40.91724 | 24.33162 | 37041 ft | 484 kts | 167° |
| 2026-05-05 19:07 | 40.85234 | 24.35304 | 37036 ft | 484 kts | 167° |
| 2026-05-05 19:07 | 40.78691 | 24.37459 | 37038 ft | 485 kts | 167° |
| 2026-05-05 19:08 | 40.72138 | 24.39614 | 37052 ft | 486 kts | 167° |
| 2026-05-05 19:08 | 40.65572 | 24.41768 | 37035 ft | 487 kts | 167° |
| 2026-05-05 19:09 | 40.59043 | 24.43905 | 37031 ft | 487 kts | 167° |
| 2026-05-05 19:09 | 40.52459 | 24.46057 | 37044 ft | 488 kts | 167° |
| 2026-05-05 19:10 | 40.45860 | 24.48209 | 37045 ft | 488 kts | 168° |
| 2026-05-05 19:10 | 40.39264 | 24.50355 | 37047 ft | 489 kts | 168° |
| 2026-05-05 19:11 | 40.32665 | 24.52499 | 37054 ft | 489 kts | 168° |
| 2026-05-05 19:11 | 40.26108 | 24.54624 | 37054 ft | 489 kts | 168° |
| 2026-05-05 19:12 | 40.19505 | 24.56760 | 37059 ft | 489 kts | 168° |
| 2026-05-05 19:12 | 40.12903 | 24.58892 | 37054 ft | 488 kts | 168° |
| 2026-05-05 19:13 | 40.06305 | 24.61018 | 37049 ft | 488 kts | 168° |
| 2026-05-05 19:13 | 39.99762 | 24.63121 | 37047 ft | 488 kts | 168° |
| 2026-05-05 19:14 | 39.93169 | 24.65237 | 37052 ft | 487 kts | 168° |
| 2026-05-05 19:14 | 39.86588 | 24.67345 | 37049 ft | 487 kts | 168° |
| 2026-05-05 19:15 | 39.80005 | 24.69449 | 37043 ft | 487 kts | 168° |
| 2026-05-05 19:15 | 39.73478 | 24.71532 | 37046 ft | 486 kts | 168° |
| 2026-05-05 19:16 | 39.66905 | 24.73625 | 37045 ft | 486 kts | 168° |
| 2026-05-05 19:16 | 39.60344 | 24.75710 | 37045 ft | 486 kts | 168° |
| 2026-05-05 19:17 | 39.53775 | 24.77793 | 37043 ft | 486 kts | 168° |
| 2026-05-05 19:17 | 39.47256 | 24.79857 | 37045 ft | 486 kts | 168° |
| 2026-05-05 19:18 | 39.40690 | 24.81931 | 37047 ft | 486 kts | 168° |
| 2026-05-05 19:18 | 39.34123 | 24.84002 | 37048 ft | 486 kts | 168° |
| 2026-05-05 19:19 | 39.27558 | 24.86068 | 37049 ft | 486 kts | 169° |
| 2026-05-05 19:19 | 39.20986 | 24.88132 | 37050 ft | 486 kts | 169° |
| 2026-05-05 19:20 | 39.14445 | 24.90120 | 37050 ft | 485 kts | 173° |
| 2026-05-05 19:20 | 39.07786 | 24.90346 | 37050 ft | 475 kts | 192° |
| 2026-05-05 19:21 | 39.01440 | 24.88313 | 37050 ft | 469 kts | 202° |
| 2026-05-05 19:21 | 38.95196 | 24.85885 | 37054 ft | 469 kts | 202° |
| 2026-05-05 19:22 | 38.88978 | 24.83492 | 37057 ft | 470 kts | 202° |
| 2026-05-05 19:22 | 38.82708 | 24.81085 | 37060 ft | 471 kts | 202° |
| 2026-05-05 19:23 | 38.76432 | 24.78678 | 37059 ft | 471 kts | 202° |
| 2026-05-05 19:23 | 38.70147 | 24.76271 | 37059 ft | 472 kts | 202° |
| 2026-05-05 19:24 | 38.63870 | 24.73873 | 36812 ft | 468 kts | 202° |
| 2026-05-05 19:24 | 38.60792 | 24.72700 | 36205 ft | 469 kts | 203° |
| 2026-05-05 19:24 | 38.57651 | 24.71501 | 35393 ft | 473 kts | 203° |
| 2026-05-05 19:25 | 38.54470 | 24.70289 | 34505 ft | 479 kts | 204° |
| 2026-05-05 19:25 | 38.51259 | 24.69067 | 33547 ft | 485 kts | 204° |
| 2026-05-05 19:25 | 38.48021 | 24.67836 | 32693 ft | 486 kts | 204° |
| 2026-05-05 19:25 | 38.44778 | 24.66605 | 31857 ft | 488 kts | 203° |
| 2026-05-05 19:26 | 38.41521 | 24.65369 | 31027 ft | 489 kts | 203° |
| 2026-05-05 19:26 | 38.38259 | 24.64133 | 30245 ft | 489 kts | 203° |
| 2026-05-05 19:26 | 38.35008 | 24.62903 | 29559 ft | 484 kts | 202° |
| 2026-05-05 19:26 | 38.31846 | 24.61709 | 28929 ft | 479 kts | 202° |
| 2026-05-05 19:27 | 38.28663 | 24.60507 | 28294 ft | 474 kts | 202° |
| 2026-05-05 19:27 | 38.25521 | 24.59320 | 27666 ft | 468 kts | 202° |
| 2026-05-05 19:27 | 38.22416 | 24.58146 | 27060 ft | 463 kts | 202° |
| 2026-05-05 19:27 | 38.19342 | 24.56985 | 26461 ft | 459 kts | 202° |
| 2026-05-05 19:28 | 38.16295 | 24.55834 | 25877 ft | 454 kts | 202° |
| 2026-05-05 19:28 | 38.13310 | 24.54615 | 25318 ft | 448 kts | 204° |
| 2026-05-05 19:28 | 38.10385 | 24.53332 | 24795 ft | 442 kts | 205° |
| 2026-05-05 19:28 | 38.07540 | 24.52070 | 24274 ft | 438 kts | 205° |
| 2026-05-05 19:29 | 38.04665 | 24.50804 | 23712 ft | 435 kts | 204° |
| 2026-05-05 19:29 | 38.01819 | 24.49565 | 23093 ft | 431 kts | 204° |
| 2026-05-05 19:29 | 37.98994 | 24.48344 | 22461 ft | 427 kts | 204° |
| 2026-05-05 19:29 | 37.96195 | 24.47140 | 21850 ft | 423 kts | 204° |
| 2026-05-05 19:30 | 37.93423 | 24.45949 | 21236 ft | 419 kts | 203° |
| 2026-05-05 19:30 | 37.90671 | 24.44769 | 20646 ft | 416 kts | 203° |
| 2026-05-05 19:30 | 37.87941 | 24.43599 | 20056 ft | 412 kts | 203° |
| 2026-05-05 19:30 | 37.85234 | 24.42440 | 19489 ft | 409 kts | 203° |
| 2026-05-05 19:31 | 37.82587 | 24.41306 | 18942 ft | 405 kts | 202° |
| 2026-05-05 19:31 | 37.79929 | 24.40169 | 18388 ft | 402 kts | 202° |
| 2026-05-05 19:31 | 37.77286 | 24.39040 | 17778 ft | 399 kts | 202° |
| 2026-05-05 19:31 | 37.74668 | 24.37922 | 17194 ft | 395 kts | 202° |
| 2026-05-05 19:32 | 37.72075 | 24.36815 | 16626 ft | 392 kts | 201° |
| 2026-05-05 19:32 | 37.69506 | 24.35719 | 16060 ft | 388 kts | 201° |
| 2026-05-05 19:32 | 37.66960 | 24.34634 | 15516 ft | 385 kts | 201° |
| 2026-05-05 19:32 | 37.64435 | 24.33557 | 14997 ft | 381 kts | 201° |
| 2026-05-05 19:33 | 37.61933 | 24.32493 | 14471 ft | 378 kts | 200° |
| 2026-05-05 19:33 | 37.59466 | 24.31388 | 13970 ft | 374 kts | 207° |
| 2026-05-05 19:33 | 37.57374 | 24.29603 | 13418 ft | 366 kts | 227° |
| 2026-05-05 19:33 | 37.55913 | 24.27048 | 12804 ft | 357 kts | 248° |
| 2026-05-05 19:34 | 37.55295 | 24.24075 | 12223 ft | 348 kts | 269° |
| 2026-05-05 19:34 | 37.55228 | 24.21045 | 11648 ft | 345 kts | 274° |
| 2026-05-05 19:34 | 37.55246 | 24.18034 | 11104 ft | 342 kts | 274° |
| 2026-05-05 19:35 | 37.55207 | 24.12110 | 10207 ft | 334 kts | 272° |
| 2026-05-05 19:35 | 37.55139 | 24.09223 | 10087 ft | 319 kts | 271° |
| 2026-05-05 19:35 | 37.55060 | 24.06504 | 10065 ft | 302 kts | 271° |
| 2026-05-05 19:35 | 37.54981 | 24.03960 | 9960 ft | 292 kts | 271° |
| 2026-05-05 19:36 | 37.54904 | 24.01405 | 9614 ft | 291 kts | 271° |
| 2026-05-05 19:36 | 37.54827 | 23.98859 | 9224 ft | 290 kts | 271° |
| 2026-05-05 19:36 | 37.54751 | 23.96334 | 8828 ft | 288 kts | 271° |
| 2026-05-05 19:36 | 37.54674 | 23.93825 | 8426 ft | 286 kts | 271° |
| 2026-05-05 19:37 | 37.54597 | 23.91338 | 8047 ft | 283 kts | 271° |
| 2026-05-05 19:37 | 37.54520 | 23.88865 | 7665 ft | 281 kts | 271° |
| 2026-05-05 19:37 | 37.54444 | 23.86445 | 7279 ft | 279 kts | 271° |
| 2026-05-05 19:37 | 37.54367 | 23.84012 | 6916 ft | 277 kts | 271° |
| 2026-05-05 19:38 | 37.54290 | 23.81598 | 6558 ft | 275 kts | 270° |
| 2026-05-05 19:38 | 37.54214 | 23.79197 | 6157 ft | 273 kts | 270° |
| 2026-05-05 19:38 | 37.54138 | 23.76808 | 5762 ft | 272 kts | 270° |
| 2026-05-05 19:38 | 37.54088 | 23.74438 | 5379 ft | 269 kts | 276° |
| 2026-05-05 19:39 | 37.54626 | 23.72240 | 5082 ft | 261 kts | 303° |
| 2026-05-05 19:39 | 37.55848 | 23.70538 | 5001 ft | 264 kts | 321° |
| 2026-05-05 19:39 | 37.57458 | 23.69504 | 4989 ft | 262 kts | 348° |
| 2026-05-05 19:39 | 37.59264 | 23.69551 | 4924 ft | 261 kts | 13° |
| 2026-05-05 19:40 | 37.60975 | 23.70320 | 4610 ft | 262 kts | 22° |
| 2026-05-05 19:40 | 37.62630 | 23.71206 | 4250 ft | 261 kts | 21° |
| 2026-05-05 19:40 | 37.64326 | 23.72020 | 3844 ft | 261 kts | 18° |
| 2026-05-05 19:40 | 37.66046 | 23.72725 | 3482 ft | 259 kts | 15° |
| 2026-05-05 19:41 | 37.67768 | 23.73351 | 3138 ft | 256 kts | 14° |
| 2026-05-05 19:41 | 37.69489 | 23.73937 | 3019 ft | 259 kts | 13° |
| 2026-05-05 19:41 | 37.71231 | 23.74517 | 2994 ft | 258 kts | 13° |
| 2026-05-05 19:41 | 37.72969 | 23.75092 | 2996 ft | 259 kts | 13° |
| 2026-05-05 19:42 | 37.74687 | 23.75773 | 2995 ft | 260 kts | 22° |
| 2026-05-05 19:42 | 37.76280 | 23.76868 | 2996 ft | 261 kts | 31° |
| 2026-05-05 19:42 | 37.77712 | 23.78141 | 2996 ft | 248 kts | 35° |
| 2026-05-05 19:42 | 37.79055 | 23.79423 | 2920 ft | 237 kts | 35° |
| 2026-05-05 19:43 | 37.80340 | 23.80641 | 2837 ft | 226 kts | 35° |
| 2026-05-05 19:43 | 37.81563 | 23.81803 | 2738 ft | 214 kts | 35° |
| 2026-05-05 19:43 | 37.82723 | 23.82905 | 2609 ft | 205 kts | 35° |
| 2026-05-05 19:43 | 37.83832 | 23.83961 | 2421 ft | 192 kts | 35° |
| 2026-05-05 19:44 | 37.84859 | 23.84938 | 2139 ft | 176 kts | 35° |
| 2026-05-05 19:44 | 37.85794 | 23.85827 | 1902 ft | 161 kts | 35° |
| 2026-05-05 19:44 | 37.86659 | 23.86650 | 1693 ft | 150 kts | 35° |
| 2026-05-05 19:44 | 37.87457 | 23.87408 | 1502 ft | 146 kts | 35° |
| 2026-05-05 19:45 | 37.88271 | 23.88183 | 1305 ft | 145 kts | 36° |
| 2026-05-05 19:45 | 37.89070 | 23.88944 | 1107 ft | 143 kts | 36° |
| 2026-05-05 19:45 | 37.89840 | 23.89720 | 920 ft | 142 kts | 38° |
| 2026-05-05 19:45 | 37.90611 | 23.90451 | 723 ft | 135 kts | 35° |
| 2026-05-05 19:46 | 37.91359 | 23.91145 | 536 ft | 130 kts | 36° |
| 2026-05-05 19:46 | 37.92073 | 23.91815 | 384 ft | 125 kts | 36° |
| 2026-05-05 19:46 | 37.92755 | 23.92458 | 272 ft | 114 kts | 36° |
| 2026-05-05 19:46 | 37.93139 | 23.92824 | 272 ft | 26 kts | 37° |
| 2026-05-05 19:47 | 37.93254 | 23.92936 | 279 ft | 32 kts | 36° |
| 2026-05-05 19:47 | 37.93313 | 23.93072 | 277 ft | 15 kts | 143° |
| 2026-05-05 19:47 | 37.93244 | 23.93224 | 276 ft | 23 kts | 108° |
| 2026-05-05 19:47 | 37.93257 | 23.93357 | 277 ft | 16 kts | 39° |
| 2026-05-05 19:48 | 37.93353 | 23.93451 | 279 ft | 19 kts | 42° |
| 2026-05-05 19:48 | 37.93338 | 23.93592 | 279 ft | 19 kts | 125° |
| 2026-05-05 19:48 | 37.93250 | 23.93735 | 279 ft | 22 kts | 127° |
| 2026-05-05 19:48 | 37.93155 | 23.93897 | 280 ft | 24 kts | 127° |
| 2026-05-05 19:49 | 37.93096 | 23.94015 | 280 ft | 12 kts | 94° |
| 2026-05-05 19:49 | 37.93126 | 23.94073 | 281 ft | 14 kts | 37° |
| 2026-05-05 19:49 | 37.93254 | 23.94200 | 283 ft | 21 kts | 36° |
| 2026-05-05 19:49 | 37.93266 | 23.94315 | 283 ft | 15 kts | 123° |
| 2026-05-05 19:50 | 37.93244 | 23.94355 | 286 ft | 0 kts | 126° |
| 2026-05-05 19:50 | 37.93227 | 23.94365 | 284 ft | 6 kts | 166° |
| 2026-05-05 19:50 | 37.93160 | 23.94362 | 283 ft | 12 kts | 190° |
| 2026-05-05 19:50 | 37.93133 | 23.94356 | 283 ft | 7 kts | 190° |
| 2026-05-05 19:51 | 37.93137 | 23.94366 | 284 ft | 0 kts | 222° |
| 2026-05-05 19:51 | 37.93135 | 23.94364 | 283 ft | 0 kts | 222° |